createdAt,value
2018-01-21T00:00:08.451Z,95.47
2018-01-21T00:01:08.210Z,95.54
2018-01-21T00:02:08.441Z,95.31
2018-01-21T00:03:08.259Z,95.91
2018-01-21T00:04:08.391Z,95.62
2018-01-21T00:05:08.316Z,95.48
2018-01-21T00:06:09.054Z,95.63
2018-01-21T00:07:08.282Z,95.57
2018-01-21T00:08:08.764Z,95.45
2018-01-21T00:09:08.235Z,95.75
2018-01-21T00:10:08.299Z,95.76
2018-01-21T00:11:08.296Z,96.01
2018-01-21T00:12:08.303Z,95.55
2018-01-21T00:13:08.401Z,95.67
2018-01-21T00:14:08.309Z,95.91
2018-01-21T00:15:08.459Z,95.84
2018-01-21T00:16:08.255Z,96.01
2018-01-21T00:17:08.854Z,95.65
2018-01-21T00:18:09.708Z,95.88
2018-01-21T00:19:08.358Z,95.54
2018-01-21T00:20:08.614Z,95.98
2018-01-21T00:21:08.373Z,95.78
2018-01-21T00:22:08.233Z,95.86
2018-01-21T00:23:08.302Z,95.72
2018-01-21T00:24:08.905Z,95.65
2018-01-21T00:25:09.075Z,95.27
2018-01-21T00:26:08.351Z,95.02
2018-01-21T00:27:08.249Z,95.19
2018-01-21T00:28:08.349Z,95.36
2018-01-21T00:29:08.627Z,95.4
2018-01-21T00:30:08.507Z,95.76
2018-01-21T00:31:08.321Z,95.4
2018-01-21T00:32:08.460Z,95.21
2018-01-21T00:34:09.337Z,95.05
2018-01-21T00:35:08.361Z,95.16
2018-01-21T00:36:08.255Z,95.19
2018-01-21T00:39:10.340Z,95.43
2018-01-21T00:40:08.420Z,95.21
2018-01-21T00:41:08.722Z,95.36
2018-01-21T00:42:08.443Z,95.31
2018-01-21T00:43:08.592Z,95.37
2018-01-21T00:44:08.311Z,95.33
2018-01-21T00:45:08.330Z,95.27
2018-01-21T00:46:08.402Z,95.2
2018-01-21T00:47:08.367Z,95.27
2018-01-21T00:48:08.383Z,95.5
2018-01-21T00:49:08.326Z,95.33
2018-01-21T00:50:08.322Z,95.44
2018-01-21T00:51:09.268Z,95.49
2018-01-21T00:52:08.362Z,95.33
2018-01-21T00:53:08.309Z,95.38
2018-01-21T00:54:08.368Z,95.4
2018-01-21T00:55:08.397Z,95.56
2018-01-21T00:56:08.325Z,95.75
2018-01-21T00:57:08.371Z,95.76
2018-01-21T01:00:08.365Z,95.58
2018-01-21T01:01:08.410Z,95.55
2018-01-21T01:02:08.323Z,95.72
2018-01-21T01:04:08.435Z,96.25
2018-01-21T01:05:08.402Z,96.03
2018-01-21T01:06:08.371Z,95.71
2018-01-21T01:07:08.356Z,95.79
2018-01-21T01:08:08.384Z,96.05
2018-01-21T01:09:08.432Z,95.79
2018-01-21T01:10:08.344Z,96.17
2018-01-21T01:11:08.329Z,95.99
2018-01-21T01:12:08.483Z,95.74
2018-01-21T01:13:08.352Z,95.65
2018-01-21T01:14:08.419Z,96.07
2018-01-21T01:15:08.411Z,96.11
2018-01-21T01:16:08.336Z,95.61
2018-01-21T01:17:08.413Z,95.67
2018-01-21T01:18:08.423Z,95.42
2018-01-21T01:19:08.384Z,95.43
2018-01-21T01:20:08.395Z,95.38
2018-01-21T01:21:08.349Z,95.86
2018-01-21T01:22:08.368Z,95.46
2018-01-21T01:23:08.488Z,95.62
2018-01-21T01:24:08.430Z,95.43
2018-01-21T01:25:08.478Z,95.57
2018-01-21T01:26:09.090Z,95.52
2018-01-21T01:27:08.391Z,95.61
2018-01-21T01:28:08.418Z,95.8
2018-01-21T01:29:08.438Z,95.69
2018-01-21T01:30:08.536Z,95.78
2018-01-21T01:31:08.529Z,95.77
2018-01-21T01:32:08.433Z,95.75
2018-01-21T01:33:08.582Z,95.95
2018-01-21T01:34:08.450Z,95.89
2018-01-21T01:35:08.601Z,96.05
2018-01-21T01:36:08.535Z,96.07
2018-01-21T01:37:08.406Z,95.87
2018-01-21T01:38:08.459Z,96.39
2018-01-21T01:39:08.488Z,96.06
2018-01-21T01:40:08.426Z,96.11
2018-01-21T01:41:08.350Z,96.04
2018-01-21T01:42:08.391Z,96.31
2018-01-21T01:43:08.392Z,96.25
2018-01-21T01:44:08.535Z,96.11
2018-01-21T01:45:08.562Z,96.03
2018-01-21T01:46:08.403Z,96.37
2018-01-21T01:47:08.388Z,96.05
2018-01-21T01:48:08.510Z,96.28
2018-01-21T01:49:08.545Z,96.63
2018-01-21T01:50:08.495Z,96.19
2018-01-21T01:51:08.444Z,96.16
2018-01-21T01:52:08.369Z,96.54
2018-01-21T01:53:08.822Z,96.59
2018-01-21T01:54:08.438Z,96.56
2018-01-21T01:55:08.355Z,96.54
2018-01-21T01:56:08.353Z,96.39
2018-01-21T01:57:08.545Z,96.74
2018-01-21T01:58:08.424Z,96.64
2018-01-21T01:59:08.576Z,96.52
2018-01-21T02:00:08.556Z,96.46
2018-01-21T02:01:09.248Z,96.48
2018-01-21T02:02:08.611Z,96.41
2018-01-21T02:03:08.812Z,96.09
2018-01-21T02:04:08.500Z,96.63
2018-01-21T02:05:08.492Z,96.62
2018-01-21T02:06:08.393Z,96.47
2018-01-21T02:07:08.457Z,96.72
2018-01-21T02:08:08.462Z,96.5
2018-01-21T02:09:08.536Z,96.66
2018-01-21T02:10:08.609Z,97
2018-01-21T02:11:08.412Z,96.63
2018-01-21T02:15:09.932Z,96.04
2018-01-21T02:16:08.441Z,96.28
2018-01-21T02:18:37.034Z,96.62
2018-01-21T02:19:08.443Z,96.49
2018-01-21T02:20:08.521Z,96.5
2018-01-21T02:21:08.428Z,96.46
2018-01-21T02:22:08.471Z,96.24
2018-01-21T02:23:08.469Z,96.14
2018-01-21T02:24:08.522Z,96.31
2018-01-21T02:25:08.396Z,96.11
2018-01-21T02:26:08.498Z,96.32
2018-01-21T02:27:08.413Z,96.41
2018-01-21T02:28:08.484Z,96.5
2018-01-21T02:29:08.462Z,96.6
2018-01-21T02:30:08.539Z,96.25
2018-01-21T02:31:08.515Z,96.08
2018-01-21T02:32:08.631Z,96.21
2018-01-21T02:33:08.557Z,96.19
2018-01-21T02:34:08.566Z,96
2018-01-21T02:35:08.499Z,96.08
2018-01-21T02:36:08.463Z,96.02
2018-01-21T02:37:08.462Z,96.05
2018-01-21T02:38:08.535Z,96.11
2018-01-21T02:39:08.664Z,95.84
2018-01-21T02:40:08.506Z,95.57
2018-01-21T02:41:08.549Z,95.43
2018-01-21T02:42:08.634Z,95.35
2018-01-21T02:43:08.495Z,95.5
2018-01-21T02:44:08.560Z,95.53
2018-01-21T02:46:08.737Z,95.53
2018-01-21T02:47:08.511Z,95.55
2018-01-21T02:48:08.414Z,96
2018-01-21T02:49:08.456Z,95.56
2018-01-21T02:50:08.633Z,95.33
2018-01-21T02:51:08.558Z,95.65
2018-01-21T02:52:08.647Z,95.64
2018-01-21T02:53:08.484Z,95.63
2018-01-21T02:54:08.499Z,95.35
2018-01-21T02:55:08.576Z,95.31
2018-01-21T02:56:08.486Z,95.29
2018-01-21T02:57:08.517Z,95.77
2018-01-21T02:58:08.557Z,95.63
2018-01-21T02:59:08.517Z,95.69
2018-01-21T03:00:08.824Z,95.61
2018-01-21T03:01:08.554Z,96.11
2018-01-21T03:02:09.593Z,95.89
2018-01-21T03:03:08.538Z,95.7
2018-01-21T03:04:08.508Z,95.8
2018-01-21T03:05:08.647Z,95.72
2018-01-21T03:06:08.582Z,95.75
2018-01-21T03:07:08.517Z,95.89
2018-01-21T03:08:09.329Z,96.11
2018-01-21T03:09:08.533Z,96
2018-01-21T03:10:08.743Z,96
2018-01-21T03:11:08.651Z,96.26
2018-01-21T03:12:08.755Z,96.13
2018-01-21T03:13:08.593Z,96.11
2018-01-21T03:14:08.652Z,96.08
2018-01-21T03:21:08.554Z,95.83
2018-01-21T03:22:08.598Z,95.57
2018-01-21T03:23:09.103Z,95.79
2018-01-21T03:24:08.611Z,95.32
2018-01-21T03:25:08.649Z,95.47
2018-01-21T03:26:08.622Z,95.71
2018-01-21T03:27:08.667Z,95.59
2018-01-21T03:28:08.690Z,95.54
2018-01-21T03:29:08.595Z,95.73
2018-01-21T03:30:08.650Z,95.06
2018-01-21T03:31:08.582Z,95.19
2018-01-21T03:32:08.595Z,95.34
2018-01-21T03:33:08.590Z,95.37
2018-01-21T03:34:08.773Z,95.12
2018-01-21T03:35:08.577Z,95.42
2018-01-21T03:36:08.570Z,95.53
2018-01-21T03:37:08.564Z,95.49
2018-01-21T03:38:08.594Z,95.45
2018-01-21T03:39:08.679Z,95.54
2018-01-21T03:40:08.605Z,95.64
2018-01-21T03:42:08.658Z,95.48
2018-01-21T03:43:08.716Z,95.53
2018-01-21T03:44:09.209Z,95.53
2018-01-21T03:45:08.685Z,95.22
2018-01-21T03:46:08.578Z,95.14
2018-01-21T03:47:08.732Z,94.91
2018-01-21T03:48:08.541Z,94.96
2018-01-21T03:49:08.927Z,95.2
2018-01-21T03:50:08.640Z,95.05
2018-01-21T03:51:08.767Z,95.22
2018-01-21T03:52:08.649Z,95.14
2018-01-21T03:53:08.652Z,95.25
2018-01-21T03:54:08.618Z,95.15
2018-01-21T03:55:08.791Z,94.72
2018-01-21T03:56:15.625Z,94.87
2018-01-21T03:57:08.611Z,94.91
2018-01-21T03:59:09.205Z,95
2018-01-21T04:00:08.765Z,94.94
2018-01-21T04:01:08.654Z,95.01
2018-01-21T04:02:08.739Z,95
2018-01-21T04:03:08.812Z,94.81
2018-01-21T04:04:08.767Z,94.49
2018-01-21T04:05:08.622Z,94.85
2018-01-21T04:06:08.689Z,94.78
2018-01-21T04:07:08.670Z,94.71
2018-01-21T04:08:08.710Z,94.7
2018-01-21T04:09:08.694Z,94.59
2018-01-21T04:10:12.482Z,94.51
2018-01-21T04:11:08.774Z,94.71
2018-01-21T04:12:08.760Z,94.86
2018-01-21T04:13:08.758Z,94.86
2018-01-21T04:14:08.684Z,94.73
2018-01-21T04:15:08.659Z,94.83
2018-01-21T04:16:08.668Z,94.69
2018-01-21T04:17:09.411Z,94.73
2018-01-21T04:18:08.818Z,94.74
2018-01-21T04:19:08.797Z,94.69
2018-01-21T04:20:08.643Z,94.48
2018-01-21T04:21:08.708Z,94.37
2018-01-21T04:22:08.657Z,94.48
2018-01-21T04:23:08.766Z,94.6
2018-01-21T04:24:08.720Z,94.49
2018-01-21T04:25:08.718Z,94.59
2018-01-21T04:26:08.760Z,94.33
2018-01-21T04:27:08.656Z,94.29
2018-01-21T04:28:08.752Z,94.52
2018-01-21T04:29:08.730Z,94.78
2018-01-21T04:30:08.765Z,94.6
2018-01-21T04:31:08.771Z,94.56
2018-01-21T04:32:08.717Z,94.47
2018-01-21T04:33:08.736Z,94.46
2018-01-21T04:34:08.740Z,94.36
2018-01-21T04:35:08.797Z,94.48
2018-01-21T04:36:08.753Z,94.48
2018-01-21T04:37:08.725Z,94.43
2018-01-21T04:38:08.739Z,94.52
2018-01-21T04:39:08.729Z,94.52
2018-01-21T04:40:08.770Z,94.36
2018-01-21T04:41:08.712Z,94.41
2018-01-21T04:42:08.762Z,94.45
2018-01-21T04:43:09.029Z,93.96
2018-01-21T04:44:08.684Z,94.32
2018-01-21T04:45:08.808Z,94.1
2018-01-21T04:46:08.803Z,94.53
2018-01-21T04:47:08.779Z,94.6
2018-01-21T04:48:08.755Z,93.9
2018-01-21T04:49:08.749Z,94.23
2018-01-21T04:50:08.717Z,94.29
2018-01-21T04:51:08.724Z,94.2
2018-01-21T04:52:08.865Z,94.25
2018-01-21T04:53:08.762Z,94.3
2018-01-21T04:54:08.729Z,94.23
2018-01-21T04:57:08.791Z,94.18
2018-01-21T04:58:08.736Z,94.32
2018-01-21T04:59:08.759Z,94.48
2018-01-21T05:00:08.788Z,94.19
2018-01-21T05:01:07.789Z,94.31
2018-01-21T05:02:07.813Z,94.04
2018-01-21T05:03:07.780Z,94.08
2018-01-21T05:04:07.876Z,94.2
2018-01-21T05:05:08.516Z,94.07
2018-01-21T05:06:07.832Z,94.05
2018-01-21T05:07:07.749Z,94.04
2018-01-21T05:08:07.786Z,93.61
2018-01-21T05:09:08.605Z,93.73
2018-01-21T05:10:07.722Z,93.4
2018-01-21T05:11:07.713Z,92.95
2018-01-21T05:12:07.838Z,93.31
2018-01-21T05:13:07.803Z,93.07
2018-01-21T05:14:07.880Z,92.92
2018-01-21T05:15:08.477Z,93.17
2018-01-21T05:16:07.718Z,93.35
2018-01-21T05:17:08.398Z,92.85
2018-01-21T05:18:07.902Z,92.86
2018-01-21T05:19:07.964Z,93.12
2018-01-21T05:20:07.802Z,92.5
2018-01-21T05:21:07.809Z,92.65
2018-01-21T05:22:07.764Z,92.69
2018-01-21T05:23:07.977Z,92.78
2018-01-21T05:24:07.728Z,92.42
2018-01-21T05:25:07.803Z,92.44
2018-01-21T05:26:07.781Z,92.56
2018-01-21T05:27:07.782Z,92.31
2018-01-21T05:28:07.812Z,92.45
2018-01-21T05:29:07.817Z,92.23
2018-01-21T05:30:07.854Z,92.4
2018-01-21T05:31:09.120Z,92.13
2018-01-21T05:32:07.785Z,92.27
2018-01-21T05:33:07.788Z,92.33
2018-01-21T05:34:07.796Z,92.25
2018-01-21T05:35:07.807Z,92.46
2018-01-21T05:36:07.906Z,92.18
2018-01-21T05:37:07.871Z,92.63
2018-01-21T05:38:08.096Z,92.32
2018-01-21T05:39:08.760Z,92.17
2018-01-21T05:40:07.845Z,92.28
2018-01-21T05:41:07.798Z,92.54
2018-01-21T05:42:08.126Z,92.28
2018-01-21T05:43:07.795Z,92.11
2018-01-21T05:44:09.839Z,92.33
2018-01-21T05:45:08.529Z,91.85
2018-01-21T05:46:07.939Z,92.11
2018-01-21T05:47:07.963Z,91.93
2018-01-21T05:48:07.775Z,92.21
2018-01-21T05:52:07.785Z,91.47
2018-01-21T05:53:07.876Z,91.4
2018-01-21T05:54:07.878Z,91.61
2018-01-21T05:55:07.792Z,91.8
2018-01-21T05:56:08.464Z,91.38
2018-01-21T05:57:08.465Z,91.36
2018-01-21T05:58:07.786Z,90.87
2018-01-21T05:59:07.976Z,91.26
2018-01-21T06:01:18.446Z,91.34
2018-01-21T06:02:08.331Z,91.24
2018-01-21T06:03:08.353Z,90.93
2018-01-21T06:04:08.467Z,91.06
2018-01-21T06:05:08.413Z,90.49
2018-01-21T06:06:08.320Z,90.93
2018-01-21T06:07:09.181Z,91.21
2018-01-21T06:08:08.349Z,91.07
2018-01-21T06:09:08.407Z,90.9
2018-01-21T06:10:08.859Z,91.27
2018-01-21T06:11:08.309Z,91.18
2018-01-21T06:12:08.457Z,91.48
2018-01-21T06:13:09.508Z,91.22
2018-01-21T06:14:08.529Z,91.46
2018-01-21T06:15:08.371Z,91.1
2018-01-21T06:16:08.398Z,91.18
2018-01-21T06:17:08.611Z,91.23
2018-01-21T06:18:08.337Z,91.07
2018-01-21T06:19:08.397Z,90.65
2018-01-21T06:20:08.558Z,90.98
2018-01-21T06:21:08.375Z,91.15
2018-01-21T06:22:08.431Z,90.71
2018-01-21T06:23:08.348Z,90.61
2018-01-21T06:24:08.331Z,90.85
2018-01-21T06:25:09.700Z,90.78
2018-01-21T06:26:08.324Z,91.25
2018-01-21T06:27:09.386Z,90.96
2018-01-21T06:28:09.042Z,90.93
2018-01-21T06:29:08.340Z,90.67
2018-01-21T06:30:08.542Z,91.03
2018-01-21T06:31:09.106Z,90.76
2018-01-21T06:32:08.470Z,90.49
2018-01-21T06:33:08.519Z,90.6
2018-01-21T06:34:08.471Z,90.56
2018-01-21T06:35:08.533Z,90.51
2018-01-21T06:36:08.441Z,89.77
2018-01-21T06:37:08.987Z,89.57
2018-01-21T06:38:08.553Z,89.79
2018-01-21T06:39:08.401Z,90.4
2018-01-21T06:40:08.407Z,90.39
2018-01-21T06:41:08.540Z,89.85
2018-01-21T06:42:08.420Z,89.94
2018-01-21T06:43:08.331Z,90.15
2018-01-21T06:44:08.492Z,90.19
2018-01-21T06:45:09.018Z,90.07
2018-01-21T06:46:08.348Z,90.28
2018-01-21T06:47:08.470Z,89.74
2018-01-21T06:48:08.625Z,89.61
2018-01-21T06:49:08.359Z,89.78
2018-01-21T06:50:08.320Z,89.19
2018-01-21T06:51:08.590Z,88.52
2018-01-21T06:55:08.362Z,89.53
2018-01-21T06:56:08.371Z,88.43
2018-01-21T06:57:08.348Z,89.23
2018-01-21T06:58:08.324Z,88.88
2018-01-21T06:59:08.339Z,88.87
2018-01-21T07:00:08.370Z,89.17
2018-01-21T07:01:08.979Z,88.57
2018-01-21T07:02:08.428Z,88.9
2018-01-21T07:03:08.433Z,88.53
2018-01-21T07:04:08.502Z,88.69
2018-01-21T07:05:08.405Z,88.8
2018-01-21T07:06:08.348Z,88.95
2018-01-21T07:07:08.369Z,88.58
2018-01-21T07:08:08.338Z,88.33
2018-01-21T07:09:08.426Z,88.25
2018-01-21T07:10:08.365Z,88.52
2018-01-21T07:11:08.335Z,88.17
2018-01-21T07:12:08.404Z,87.56
2018-01-21T07:13:08.325Z,87.8
2018-01-21T07:16:09.936Z,88.27
2018-01-21T07:17:08.398Z,88.29
2018-01-21T07:18:08.349Z,87.95
2018-01-21T07:20:37.418Z,88.14
2018-01-21T07:21:08.392Z,87.77
2018-01-21T07:22:08.364Z,88.23
2018-01-21T07:23:08.392Z,87.87
2018-01-21T07:24:08.379Z,87.78
2018-01-21T07:25:08.507Z,87.62
2018-01-21T07:26:08.423Z,88.03
2018-01-21T07:27:08.370Z,88.17
2018-01-21T07:28:08.423Z,87.97
2018-01-21T07:29:11.910Z,88.15
2018-01-21T07:30:08.748Z,88.17
2018-01-21T07:31:09.183Z,88.28
2018-01-21T07:32:08.441Z,87.87
2018-01-21T07:34:08.648Z,88.05
2018-01-21T07:35:08.558Z,88.01
2018-01-21T07:36:15.574Z,88.6
2018-01-21T07:37:08.412Z,87.97
2018-01-21T07:38:08.368Z,87.67
2018-01-21T07:40:08.394Z,87.97
2018-01-21T07:41:08.783Z,88.16
2018-01-21T07:42:08.369Z,87.18
2018-01-21T07:43:08.394Z,87.31
2018-01-21T07:44:08.380Z,86.63
2018-01-21T07:45:08.429Z,87.41
2018-01-21T07:46:08.415Z,86.8
2018-01-21T07:47:08.730Z,85.81
2018-01-21T07:48:08.461Z,85.9
2018-01-21T07:49:08.397Z,86.33
2018-01-21T07:50:08.417Z,86.09
2018-01-21T07:51:08.407Z,85.96
2018-01-21T07:52:08.399Z,85.38
2018-01-21T07:53:08.367Z,86.19
2018-01-21T07:54:08.453Z,85.37
2018-01-21T07:55:08.506Z,85.19
2018-01-21T07:56:08.428Z,85.88
2018-01-21T07:57:08.492Z,85.47
2018-01-21T07:58:08.356Z,85.41
2018-01-21T07:59:08.459Z,85.3
2018-01-21T08:00:09.223Z,84.92
2018-01-21T08:01:08.383Z,85.2
2018-01-21T08:02:08.514Z,85.65
2018-01-21T08:03:08.458Z,85.71
2018-01-21T08:04:08.492Z,85.94
2018-01-21T08:05:08.528Z,85.77
2018-01-21T08:06:08.533Z,86.64
2018-01-21T08:07:08.487Z,85.25
2018-01-21T08:08:08.533Z,85.36
2018-01-21T08:09:08.431Z,85.44
2018-01-21T08:10:08.439Z,85.45
2018-01-21T08:11:08.514Z,85.69
2018-01-21T08:12:08.416Z,85.41
2018-01-21T08:13:08.442Z,85.97
2018-01-21T08:14:08.457Z,85.79
2018-01-21T08:15:08.445Z,84.89
2018-01-21T08:16:08.473Z,85.32
2018-01-21T08:17:08.443Z,85.29
2018-01-21T08:18:08.465Z,86.11
2018-01-21T08:19:08.740Z,85.54
2018-01-21T08:20:08.435Z,85.75
2018-01-21T08:21:08.630Z,85.91
2018-01-21T08:23:14.503Z,85.93
2018-01-21T08:24:08.772Z,85.91
2018-01-21T08:25:08.523Z,85.92
2018-01-21T08:26:08.452Z,85.89
2018-01-21T08:27:08.441Z,85.99
2018-01-21T08:28:08.608Z,85.42
2018-01-21T08:29:08.473Z,85.61
2018-01-21T08:30:08.555Z,85.1
2018-01-21T08:31:08.452Z,86.08
2018-01-21T08:32:08.533Z,85.66
2018-01-21T08:33:08.488Z,86.27
2018-01-21T08:34:08.749Z,85.59
2018-01-21T08:35:08.519Z,86.01
2018-01-21T08:37:08.591Z,85.77
2018-01-21T08:38:08.580Z,85.43
2018-01-21T08:39:08.693Z,85.49
2018-01-21T08:40:08.554Z,85.13
2018-01-21T08:44:08.535Z,85.56
2018-01-21T08:45:08.502Z,85.86
2018-01-21T08:46:08.502Z,85.67
2018-01-21T08:47:08.533Z,85.68
2018-01-21T08:48:08.484Z,86.23
2018-01-21T08:49:08.529Z,85.68
2018-01-21T08:50:08.524Z,85.31
2018-01-21T08:51:08.640Z,85.62
2018-01-21T08:52:08.518Z,85.21
2018-01-21T08:53:08.535Z,85.77
2018-01-21T08:54:08.528Z,85.69
2018-01-21T08:55:08.524Z,85.69
2018-01-21T08:56:08.892Z,85.55
2018-01-21T08:57:09.012Z,85.24
2018-01-21T08:58:08.855Z,84.7
2018-01-21T08:59:09.159Z,85.41
2018-01-21T09:00:08.965Z,85.24
2018-01-21T09:01:08.556Z,85.07
2018-01-21T09:02:08.638Z,85.01
2018-01-21T09:03:08.542Z,85.69
2018-01-21T09:04:08.548Z,85.58
2018-01-21T09:05:08.563Z,85.69
2018-01-21T09:06:08.542Z,85.3
2018-01-21T09:07:08.630Z,85.17
2018-01-21T09:08:08.537Z,85.33
2018-01-21T09:09:08.576Z,85.92
2018-01-21T09:10:08.684Z,85.91
2018-01-21T09:11:08.560Z,86.15
2018-01-21T09:12:08.597Z,85.74
2018-01-21T09:13:08.572Z,85.75
2018-01-21T09:14:08.573Z,85.68
2018-01-21T09:15:08.550Z,85.66
2018-01-21T09:16:08.562Z,85.98
2018-01-21T09:17:08.556Z,86.07
2018-01-21T09:18:08.544Z,85.58
2018-01-21T09:19:08.595Z,86.06
2018-01-21T09:20:08.536Z,85.75
2018-01-21T09:21:08.555Z,85.66
2018-01-21T09:22:08.641Z,85.66
2018-01-21T09:23:08.583Z,85.14
2018-01-21T09:24:08.668Z,85.06
2018-01-21T09:25:08.546Z,85.1
2018-01-21T09:26:08.551Z,84.4
2018-01-21T09:27:08.588Z,85.31
2018-01-21T09:28:08.561Z,85.33
2018-01-21T09:29:08.551Z,84.79
2018-01-21T09:30:08.567Z,84.9
2018-01-21T09:31:08.542Z,85.19
2018-01-21T09:32:08.758Z,85.38
2018-01-21T09:33:08.586Z,85.43
2018-01-21T09:34:08.578Z,85.82
2018-01-21T09:35:08.561Z,85.63
2018-01-21T09:36:08.569Z,85.79
2018-01-21T09:37:08.517Z,86.09
2018-01-21T09:38:08.575Z,86.06
2018-01-21T09:39:08.550Z,86.21
2018-01-21T09:40:08.584Z,86.33
2018-01-21T09:41:08.565Z,86.25
2018-01-21T09:42:08.545Z,86.47
2018-01-21T09:43:08.603Z,86.18
2018-01-21T09:44:08.559Z,86.1
2018-01-21T09:45:08.758Z,86.21
2018-01-21T09:46:08.598Z,85.61
2018-01-21T09:47:08.572Z,85.25
2018-01-21T09:48:08.638Z,85.62
2018-01-21T09:49:08.583Z,85.57
2018-01-21T09:50:08.860Z,85.77
2018-01-21T09:51:08.611Z,85.17
2018-01-21T09:52:08.621Z,85.18
2018-01-21T09:53:08.592Z,85.7
2018-01-21T09:54:08.618Z,84.49
2018-01-21T09:55:08.725Z,84.92
2018-01-21T09:58:15.634Z,84.21
2018-01-21T09:59:08.633Z,84.38
2018-01-21T10:00:08.588Z,84.16
2018-01-21T10:01:08.591Z,84.13
2018-01-21T10:02:08.705Z,83.63
2018-01-21T10:03:08.594Z,83.25
2018-01-21T10:04:08.581Z,83.72
2018-01-21T10:05:08.621Z,82.42
2018-01-21T10:06:08.574Z,83.4
2018-01-21T10:07:08.577Z,81.99
2018-01-21T10:08:08.562Z,81.76
2018-01-21T10:09:08.657Z,82.5
2018-01-21T10:14:08.737Z,81.54
2018-01-21T10:15:08.798Z,81.06
2018-01-21T10:16:08.636Z,81
2018-01-21T10:17:08.579Z,81.78
2018-01-21T10:18:08.665Z,81.98
2018-01-21T10:19:08.695Z,81.47
2018-01-21T10:20:08.661Z,81.68
2018-01-21T10:21:08.598Z,82.32
2018-01-21T10:22:09.010Z,82.45
2018-01-21T10:23:08.607Z,81.03
2018-01-21T10:24:10.214Z,81.25
2018-01-21T10:25:08.587Z,80.3
2018-01-21T10:26:08.694Z,80.61
2018-01-21T10:27:08.553Z,80.83
2018-01-21T10:28:08.659Z,80.65
2018-01-21T10:29:08.578Z,80.25
2018-01-21T10:30:08.711Z,80.75
2018-01-21T10:31:08.595Z,81.47
2018-01-21T10:32:08.671Z,81.33
2018-01-21T10:33:08.661Z,80.29
2018-01-21T10:34:08.744Z,80.54
2018-01-21T10:35:08.745Z,80.76
2018-01-21T10:36:08.781Z,81.35
2018-01-21T10:37:08.694Z,80.94
2018-01-21T10:38:08.708Z,80.55
2018-01-21T10:39:08.670Z,80.74
2018-01-21T10:40:08.711Z,79.39
2018-01-21T10:41:08.700Z,79.08
2018-01-21T10:42:08.674Z,79.48
2018-01-21T10:43:08.824Z,79.24
2018-01-21T10:44:08.853Z,78.87
2018-01-21T10:45:08.642Z,78.9
2018-01-21T10:46:08.766Z,78.47
2018-01-21T10:47:08.819Z,78.81
2018-01-21T10:48:08.663Z,79.02
2018-01-21T10:49:08.736Z,78.51
2018-01-21T10:50:09.568Z,76.74
2018-01-21T10:51:09.381Z,76.5
2018-01-21T10:52:09.205Z,76.87
2018-01-21T10:53:08.668Z,76.38
2018-01-21T10:54:08.699Z,74.74
2018-01-21T10:55:08.713Z,76.12
2018-01-21T10:56:08.779Z,75.98
2018-01-21T10:57:08.679Z,76.05
2018-01-21T10:58:08.736Z,74.2
2018-01-21T10:59:08.902Z,74.11
2018-01-21T11:00:09.051Z,73.96
2018-01-21T11:01:08.753Z,74.5
2018-01-21T11:02:09.898Z,75.12
2018-01-21T11:03:07.829Z,75.25
2018-01-21T11:04:07.996Z,74.88
2018-01-21T11:05:07.793Z,75.89
2018-01-21T11:06:08.569Z,75.48
2018-01-21T11:07:08.908Z,74.4
2018-01-21T11:08:07.849Z,74.67
2018-01-21T11:09:07.799Z,75.54
2018-01-21T11:10:07.799Z,74.32
2018-01-21T11:11:08.042Z,74.15
2018-01-21T11:12:08.016Z,74.5
2018-01-21T11:13:08.817Z,74.8
2018-01-21T11:14:19.447Z,75.25
2018-01-21T11:15:07.898Z,74.66
2018-01-21T11:16:12.438Z,74.75
2018-01-21T11:17:08.071Z,74.45
2018-01-21T11:18:10.299Z,76.03
2018-01-21T11:19:07.775Z,76.13
2018-01-21T11:20:08.904Z,76.48
2018-01-21T11:21:16.063Z,76.25
2018-01-21T11:22:11.899Z,76.82
2018-01-21T11:23:13.763Z,76.71
2018-01-21T11:24:08.665Z,76.15
2018-01-21T11:25:08.818Z,75.37
2018-01-21T11:26:08.070Z,75.38
2018-01-21T11:27:08.506Z,75.41
2018-01-21T11:28:08.540Z,75.51
2018-01-21T11:29:07.776Z,75.04
2018-01-21T11:30:08.484Z,75.4
2018-01-21T11:31:07.792Z,75.77
2018-01-21T11:32:07.892Z,75.96
2018-01-21T11:33:09.768Z,75.99
2018-01-21T11:34:07.861Z,75.91
2018-01-21T11:35:07.769Z,75.65
2018-01-21T11:36:08.777Z,76.14
2018-01-21T11:37:07.936Z,76.22
2018-01-21T11:38:07.785Z,77.18
2018-01-21T11:39:08.474Z,76.69
2018-01-21T11:40:07.782Z,77.05
2018-01-21T11:41:07.820Z,76.58
2018-01-21T11:42:07.759Z,76.83
2018-01-21T11:45:17.772Z,76.6
2018-01-21T11:46:07.969Z,76.35
2018-01-21T11:47:10.778Z,75.26
2018-01-21T11:49:19.855Z,74.95
2018-01-21T11:50:07.753Z,75.78
2018-01-21T11:51:07.816Z,75.95
2018-01-21T11:52:09.182Z,75.87
2018-01-21T11:53:07.807Z,75.93
2018-01-21T11:54:08.333Z,75.24
2018-01-21T11:55:07.854Z,74.38
2018-01-21T11:56:08.120Z,73.42
2018-01-21T11:57:08.522Z,73.02
2018-01-21T11:58:09.064Z,73.17
2018-01-21T11:59:07.813Z,73.49
2018-01-21T12:00:07.875Z,74.07
2018-01-21T12:01:07.886Z,72.59
2018-01-21T12:02:08.539Z,73.26
2018-01-21T12:03:07.818Z,73.83
2018-01-21T12:04:07.843Z,74.03
2018-01-21T12:05:08.455Z,73.07
2018-01-21T12:06:07.933Z,73.09
2018-01-21T12:07:08.604Z,74.26
2018-01-21T12:08:09.125Z,74.02
2018-01-21T12:09:07.840Z,73.07
2018-01-21T12:10:07.898Z,72.86
2018-01-21T12:11:07.914Z,73.42
2018-01-21T12:12:09.169Z,73.32
2018-01-21T12:13:08.529Z,74.29
2018-01-21T12:14:08.385Z,73.46
2018-01-21T12:15:07.934Z,73.89
2018-01-21T12:16:07.829Z,72.9
2018-01-21T12:17:07.792Z,73.26
2018-01-21T12:18:07.844Z,73.08
2018-01-21T12:19:09.146Z,72.01
2018-01-21T12:20:08.574Z,72.17
2018-01-21T12:21:10.728Z,71.17
2018-01-21T12:22:10.122Z,71.86
2018-01-21T12:23:07.790Z,72.35
2018-01-21T12:24:07.815Z,73.36
2018-01-21T12:25:07.883Z,73.01
2018-01-21T12:26:08.198Z,73.23
2018-01-21T12:27:07.884Z,73.56
2018-01-21T12:28:07.856Z,73.6
2018-01-21T12:29:08.926Z,73.65
2018-01-21T12:30:07.888Z,72.73
2018-01-21T12:31:07.950Z,73.35
2018-01-21T12:32:07.803Z,73.87
2018-01-21T12:33:08.438Z,74.24
2018-01-21T12:34:07.941Z,72.8
2018-01-21T12:35:07.770Z,72.96
2018-01-21T12:36:07.821Z,73.35
2018-01-21T12:37:08.171Z,72.79
2018-01-21T12:38:07.904Z,72.8
2018-01-21T12:39:07.956Z,73.32
2018-01-21T12:40:08.518Z,71.86
2018-01-21T12:41:07.819Z,72.39
2018-01-21T12:42:09.120Z,73.93
2018-01-21T12:43:07.816Z,73.48
2018-01-21T12:44:07.824Z,73.63
2018-01-21T12:45:08.635Z,73.88
2018-01-21T12:46:08.463Z,74.13
2018-01-21T12:47:09.263Z,73.74
2018-01-21T12:48:07.882Z,73.71
2018-01-21T12:49:07.864Z,73.65
2018-01-21T12:50:07.801Z,73.83
2018-01-21T12:51:07.790Z,74.45
2018-01-21T12:52:07.888Z,73.84
2018-01-21T12:53:08.315Z,75.16
2018-01-21T12:54:08.355Z,75.01
2018-01-21T12:55:07.824Z,75.11
2018-01-21T12:56:07.829Z,75.14
2018-01-21T12:57:07.846Z,75.03
2018-01-21T12:58:08.219Z,75.16
2018-01-21T12:59:08.832Z,75.02
2018-01-21T13:00:07.793Z,74.76
2018-01-21T13:01:07.915Z,75.34
2018-01-21T13:02:10.116Z,74.12
2018-01-21T13:03:07.974Z,74.77
2018-01-21T13:04:08.375Z,74.84
2018-01-21T13:05:08.091Z,75.31
2018-01-21T13:06:07.866Z,74.83
2018-01-21T13:07:07.932Z,74.95
2018-01-21T13:08:07.881Z,74.84
2018-01-21T13:09:07.865Z,74.79
2018-01-21T13:10:08.467Z,75.57
2018-01-21T13:11:08.347Z,75.47
2018-01-21T13:12:08.582Z,75.86
2018-01-21T13:13:08.338Z,76.56
2018-01-21T13:14:08.664Z,76.66
2018-01-21T13:15:08.839Z,76.96
2018-01-21T13:16:07.945Z,77.74
2018-01-21T13:17:07.832Z,77.94
2018-01-21T13:18:08.558Z,78.12
2018-01-21T13:19:07.855Z,78.08
2018-01-21T13:20:07.952Z,78.7
2018-01-21T13:21:07.848Z,77.99
2018-01-21T13:22:08.483Z,77.79
2018-01-21T13:23:08.928Z,78.33
2018-01-21T13:24:08.574Z,78.57
2018-01-21T13:25:07.875Z,79.11
2018-01-21T13:26:07.881Z,78.77
2018-01-21T13:27:08.058Z,79.34
2018-01-21T13:28:07.828Z,79.26
2018-01-21T13:29:07.828Z,77.91
2018-01-21T13:30:07.912Z,78.63
2018-01-21T13:31:07.825Z,78.62
2018-01-21T13:32:09.029Z,78.71
2018-01-21T13:33:07.963Z,79.95
2018-01-21T13:34:08.628Z,79.04
2018-01-21T13:35:09.225Z,78.47
2018-01-21T13:36:08.563Z,79.26
2018-01-21T13:37:08.124Z,79.29
2018-01-21T13:38:07.894Z,78.67
2018-01-21T13:39:07.973Z,79.14
2018-01-21T13:40:07.889Z,79.54
2018-01-21T13:41:07.910Z,79.73
2018-01-21T13:42:07.903Z,79.84